Time;durP1;ratioP1;P1;durP2;ratioP2;P2;SDS_P1;SDS_P2;PMS_P1;PMS_P2;Temp;Humidity;BMP_temperature;BMP_pressure;BME280_temperature;BME280_humidity;BME280_pressure;Samples;Min_cycle;Max_cycle;Signal;HPM_P1;HPM_P2
2022/06/12 00:02:15;;;;;;;5.73;5.20;;;23.90;49.40;;;;;;5084307;28;20440;-88
2022/06/12 00:04:45;;;;;;;6.07;5.20;;;23.80;49.30;;;;;;5064394;28;20495;-88
2022/06/12 00:07:13;;;;;;;5.20;4.80;;;23.80;49.40;;;;;;5083388;28;20451;-90
2022/06/12 00:09:42;;;;;;;5.00;4.57;;;23.70;49.40;;;;;;5082165;28;20444;-87
2022/06/12 00:12:11;;;;;;;4.57;4.23;;;23.70;49.30;;;;;;5084196;28;20431;-89
2022/06/12 00:14:44;;;;;;;4.73;4.33;;;23.70;49.40;;;;;;5079088;28;20477;-88
2022/06/12 00:17:13;;;;;;;5.00;4.60;;;23.60;49.50;;;;;;5079696;28;21156;-87
2022/06/12 00:19:44;;;;;;;5.33;4.83;;;23.50;49.70;;;;;;5051055;28;20467;-88
2022/06/12 00:22:13;;;;;;;4.73;4.33;;;23.50;49.90;;;;;;5054723;28;20524;-87
2022/06/12 00:24:41;;;;;;;4.90;4.50;;;23.50;50.30;;;;;;5081638;28;20459;-87
2022/06/12 00:27:10;;;;;;;4.63;4.23;;;23.40;50.50;;;;;;5067790;28;20958;-88
2022/06/12 00:29:40;;;;;;;4.90;4.50;;;23.30;50.20;;;;;;5049450;28;20445;-87
2022/06/12 00:32:14;;;;;;;5.07;4.57;;;23.20;50.60;;;;;;5068667;28;20475;-87
2022/06/12 00:34:45;;;;;;;5.03;4.67;;;23.20;50.40;;;;;;5063781;28;20668;-90
2022/06/12 00:37:17;;;;;;;5.57;5.00;;;23.30;50.30;;;;;;5083183;28;20539;-88
2022/06/12 00:39:49;;;;;;;5.90;5.40;;;23.20;50.30;;;;;;5049981;28;21271;-88
2022/06/12 00:42:24;;;;;;;5.60;5.10;;;23.20;50.50;;;;;;5055025;28;20437;-88
2022/06/12 00:44:55;;;;;;;5.90;5.30;;;23.20;50.50;;;;;;5066493;28;20565;-88
2022/06/12 00:47:26;;;;;;;5.70;4.70;;;23.10;50.40;;;;;;5049778;28;20450;-88
2022/06/12 00:49:59;;;;;;;5.10;4.57;;;23.10;50.60;;;;;;5067619;28;20483;-88
2022/06/12 00:52:33;;;;;;;5.20;4.87;;;23.10;50.50;;;;;;5050062;28;20456;-91
2022/06/12 00:55:08;;;;;;;7.10;5.40;;;23.00;50.60;;;;;;5065545;28;20470;-88
2022/06/12 00:57:38;;;;;;;5.23;4.73;;;23.00;50.80;;;;;;5065224;28;20488;-88
2022/06/12 01:00:09;;;;;;;5.47;4.97;;;23.00;50.90;;;;;;5060139;28;20553;-88
2022/06/12 01:02:38;;;;;;;5.47;5.07;;;23.00;51.10;;;;;;5059649;28;20451;-91
2022/06/12 01:08:00;;;;;;;6.33;5.00;;;22.90;51.30;;;;;;5074630;28;20576;-87
2022/06/12 01:10:32;;;;;;;5.93;5.40;;;22.90;51.30;;;;;;5087104;27;20436;-88
2022/06/12 01:13:03;;;;;;;4.70;4.40;;;22.80;51.50;;;;;;5088931;28;20447;-90
2022/06/12 01:15:37;;;;;;;5.37;4.90;;;22.80;51.20;;;;;;5073486;28;20458;-88
2022/06/12 01:18:11;;;;;;;5.63;5.00;;;22.80;51.70;;;;;;5066882;28;21083;-88
2022/06/12 01:20:48;;;;;;;5.73;5.23;;;22.70;51.60;;;;;;5062667;28;20465;-88
2022/06/12 01:23:53;;;;;;;5.03;4.50;;;22.70;51.50;;;;;;5068365;28;20444;-88
2022/06/12 01:26:43;;;;;;;5.63;5.03;;;22.60;51.90;;;;;;5068056;28;20432;-88
2022/06/12 01:29:21;;;;;;;7.17;5.37;;;22.60;52.10;;;;;;5081250;28;20459;-88
2022/06/12 01:31:59;;;;;;;8.77;5.07;;;22.50;52.40;;;;;;5068650;28;20470;-89
2022/06/12 01:34:36;;;;;;;5.33;4.83;;;22.40;52.50;;;;;;5066181;28;20528;-90
2022/06/12 01:37:20;;;;;;;5.77;5.27;;;22.40;52.50;;;;;;5086383;28;20558;-88
2022/06/12 01:39:56;;;;;;;4.73;4.40;;;22.40;52.30;;;;;;5085633;28;20444;-88
2022/06/12 01:42:31;;;;;;;4.87;4.47;;;22.40;52.50;;;;;;5050196;28;20447;-88
2022/06/12 01:45:12;;;;;;;5.20;4.77;;;22.40;52.30;;;;;;5084120;28;20568;-88
2022/06/12 01:47:53;;;;;;;5.20;4.63;;;22.30;51.90;;;;;;5053329;28;20450;-88
2022/06/12 01:50:28;;;;;;;5.93;4.80;;;22.30;52.10;;;;;;5068185;28;20439;-87
2022/06/12 01:53:04;;;;;;;4.40;4.10;;;22.20;52.10;;;;;;5070214;28;20501;-88
2022/06/12 01:55:42;;;;;;;5.90;4.90;;;22.20;52.50;;;;;;5075944;28;20463;-88
2022/06/12 01:58:23;;;;;;;5.60;4.70;;;22.20;52.70;;;;;;5052102;28;20471;-87
2022/06/12 02:01:01;;;;;;;5.60;5.10;;;22.10;52.60;;;;;;5070511;28;21309;-89
2022/06/12 02:03:35;;;;;;;5.13;4.53;;;22.10;52.70;;;;;;5049566;28;20432;-87
2022/06/12 02:06:10;;;;;;;5.47;4.97;;;22.10;52.60;;;;;;5070334;28;20465;-90
2022/06/12 02:08:45;;;;;;;5.03;4.50;;;22.10;52.50;;;;;;5088476;28;20513;-87
2022/06/12 02:14:13;;;;;;;5.10;4.60;;;22.00;52.50;;;;;;5070977;28;20460;-88
2022/06/12 02:16:49;;;;;;;5.40;4.10;;;22.00;52.40;;;;;;5088252;28;20447;-87
2022/06/12 02:19:22;;;;;;;4.90;4.50;;;22.00;52.30;;;;;;5090186;27;20521;-88
2022/06/12 02:21:58;;;;;;;5.17;4.60;;;21.90;51.90;;;;;;5054238;28;20481;-88
2022/06/12 02:24:32;;;;;;;5.50;4.70;;;21.80;52.20;;;;;;5086923;28;21081;-90
2022/06/12 02:27:05;;;;;;;5.37;4.87;;;21.80;52.60;;;;;;5082880;28;20444;-89
2022/06/12 02:29:37;;;;;;;5.37;4.87;;;21.80;53.00;;;;;;5064929;28;20439;-88
2022/06/12 02:32:13;;;;;;;4.57;4.17;;;21.70;52.80;;;;;;5084403;28;20447;-88
2022/06/12 02:34:47;;;;;;;5.10;4.43;;;21.70;52.80;;;;;;5084546;28;20477;-89
2022/06/12 02:37:23;;;;;;;4.93;4.40;;;21.70;52.90;;;;;;5082826;28;20547;-90
2022/06/12 02:39:55;;;;;;;6.57;4.87;;;21.60;52.70;;;;;;5069743;28;20459;-88
2022/06/12 02:42:27;;;;;;;4.97;4.47;;;21.60;53.10;;;;;;5064347;28;20456;-90
2022/06/12 02:44:59;;;;;;;4.97;4.47;;;21.60;52.80;;;;;;5066479;28;20497;-88
2022/06/12 02:47:33;;;;;;;5.63;4.90;;;21.60;53.10;;;;;;5048965;28;21044;-90
2022/06/12 02:50:06;;;;;;;6.37;5.10;;;21.60;53.30;;;;;;5069819;28;20447;-89
2022/06/12 02:52:44;;;;;;;5.83;4.63;;;21.40;53.20;;;;;;5082392;28;20479;-87
2022/06/12 02:55:21;;;;;;;5.77;5.20;;;21.30;53.30;;;;;;5076493;28;20553;-88
2022/06/12 02:57:57;;;;;;;5.53;5.03;;;21.30;53.20;;;;;;5051995;28;20473;-88
2022/06/12 03:00:33;;;;;;;5.20;4.60;;;21.30;53.00;;;;;;5060021;28;20951;-88
2022/06/12 03:03:11;;;;;;;5.40;4.43;;;21.30;53.20;;;;;;5061946;28;20471;-88
2022/06/12 03:05:42;;;;;;;5.20;4.70;;;21.20;53.00;;;;;;5044900;28;20471;-89
2022/06/12 03:08:15;;;;;;;8.70;5.30;;;21.20;52.90;;;;;;5083545;28;20919;-87
2022/06/12 03:10:48;;;;;;;4.83;4.27;;;21.20;52.80;;;;;;5055801;28;20470;-88
2022/06/12 03:13:25;;;;;;;10.00;5.93;;;21.20;51.80;;;;;;5086854;28;20971;-88
2022/06/12 03:15:57;;;;;;;4.83;4.40;;;21.20;52.30;;;;;;5069023;28;20478;-88
2022/06/12 03:18:29;;;;;;;7.03;4.40;;;21.20;52.70;;;;;;5085020;28;20447;-86
2022/06/12 03:21:08;;;;;;;5.50;5.00;;;21.20;52.50;;;;;;5079562;28;20463;-90
2022/06/12 03:23:54;;;;;;;5.20;4.70;;;21.20;52.90;;;;;;5042827;28;20463;-89
2022/06/12 03:26:36;;;;;;;6.00;5.50;;;21.10;52.80;;;;;;5052906;28;20475;-87
2022/06/12 03:29:15;;;;;;;5.17;4.77;;;21.10;52.80;;;;;;5041857;28;20469;-87
2022/06/12 03:31:53;;;;;;;4.90;4.50;;;21.10;52.80;;;;;;5062151;28;20455;-88
2022/06/12 03:34:33;;;;;;;4.90;4.50;;;21.10;53.00;;;;;;5051020;28;20503;-87
2022/06/12 03:37:07;;;;;;;6.47;5.87;;;21.10;53.00;;;;;;5079701;28;20446;-88
2022/06/12 03:39:43;;;;;;;5.73;5.20;;;21.10;53.30;;;;;;5068046;28;20450;-90
2022/06/12 03:42:19;;;;;;;5.23;4.73;;;21.10;53.40;;;;;;5066816;28;21051;-89
2022/06/12 03:44:57;;;;;;;5.63;5.17;;;21.10;53.50;;;;;;5083723;28;20464;-88
2022/06/12 03:47:32;;;;;;;8.40;5.27;;;21.00;53.40;;;;;;5086066;28;20536;-88
2022/06/12 03:50:10;;;;;;;5.50;4.93;;;21.00;53.40;;;;;;5067111;28;20443;-87
2022/06/12 03:52:46;;;;;;;6.23;4.97;;;21.00;53.90;;;;;;5083944;28;20432;-88
2022/06/12 03:57:50;;;;;;;5.13;4.63;;;21.00;54.30;;;;;;5073098;28;20826;-88
2022/06/12 03:58:17;;;;;;;7.73;5.80;;;21.00;53.90;;;;;;5076342;28;21038;-88
2022/06/12 04:00:51;;;;;;;5.37;4.83;;;21.00;53.90;;;;;;5068039;28;20456;-87
2022/06/12 04:03:24;;;;;;;6.30;5.20;;;21.00;53.90;;;;;;5079834;28;20543;-88
2022/06/12 04:05:57;;;;;;;5.60;4.97;;;21.00;53.70;;;;;;5085743;28;20580;-88
2022/06/12 04:08:29;;;;;;;6.90;4.83;;;21.00;53.80;;;;;;5066847;28;20476;-88
2022/06/12 04:10:59;;;;;;;5.53;5.03;;;21.00;53.80;;;;;;5067464;28;20955;-90
2022/06/12 04:13:28;;;;;;;5.57;5.10;;;21.00;53.60;;;;;;5057160;28;20504;-87
2022/06/12 04:16:00;;;;;;;5.47;4.97;;;20.90;53.80;;;;;;5048987;28;20456;-89
2022/06/12 04:18:31;;;;;;;6.60;5.10;;;20.90;53.90;;;;;;5080828;28;20452;-90
2022/06/12 04:21:06;;;;;;;8.40;5.10;;;20.80;54.50;;;;;;5068539;28;20463;-88
2022/06/12 04:23:43;;;;;;;13.03;5.73;;;20.80;54.60;;;;;;5086400;28;20777;-88
2022/06/12 04:26:21;;;;;;;5.27;4.77;;;20.90;54.70;;;;;;5068791;28;20478;-91
2022/06/12 04:28:58;;;;;;;7.17;5.17;;;20.90;54.70;;;;;;5085127;28;20530;-90
2022/06/12 04:31:28;;;;;;;8.80;5.13;;;20.90;54.90;;;;;;5078965;28;20812;-87
2022/06/12 04:34:11;;;;;;;5.20;4.70;;;20.90;55.00;;;;;;5076959;28;20443;-89
2022/06/12 04:36:43;;;;;;;5.60;5.03;;;20.80;55.00;;;;;;5053087;28;20475;-91
2022/06/12 04:39:12;;;;;;;8.23;5.90;;;20.80;55.20;;;;;;5086397;28;20978;-88
2022/06/12 04:41:41;;;;;;;5.63;5.03;;;20.80;55.30;;;;;;5069639;28;20488;-91
2022/06/12 04:44:09;;;;;;;6.90;5.53;;;20.90;55.40;;;;;;5061318;28;20461;-87
2022/06/12 04:46:41;;;;;;;6.93;5.90;;;20.90;55.10;;;;;;5065452;28;20439;-88
2022/06/12 04:49:12;;;;;;;6.43;5.90;;;20.90;55.10;;;;;;5071896;28;20991;-88
2022/06/12 04:51:42;;;;;;;5.93;5.33;;;21.00;55.10;;;;;;5067497;28;21077;-89
2022/06/12 04:54:10;;;;;;;11.00;7.10;;;21.00;55.20;;;;;;5069444;28;21213;-88
2022/06/12 04:56:39;;;;;;;10.90;6.00;;;20.90;55.30;;;;;;5080963;28;20927;-90
2022/06/12 04:59:08;;;;;;;7.30;6.60;;;20.90;55.50;;;;;;5065078;28;20493;-87
2022/06/12 05:01:38;;;;;;;12.00;7.00;;;20.90;55.50;;;;;;5064090;28;20896;-88
2022/06/12 05:04:07;;;;;;;7.77;6.00;;;21.00;55.50;;;;;;5061933;28;20461;-93
2022/06/12 05:06:38;;;;;;;8.13;6.23;;;21.00;55.60;;;;;;5065803;28;20443;-88
2022/06/12 05:09:10;;;;;;;6.80;5.37;;;21.00;55.60;;;;;;5073526;28;20549;-87
2022/06/12 05:11:39;;;;;;;7.57;5.90;;;20.90;56.00;;;;;;5044512;28;20966;-87
2022/06/12 05:14:09;;;;;;;6.30;5.70;;;20.80;56.00;;;;;;5065167;28;21129;-87
2022/06/12 05:16:44;;;;;;;6.70;5.73;;;20.90;56.20;;;;;;5056468;28;20467;-87
2022/06/12 05:19:15;;;;;;;6.70;6.00;;;21.00;55.90;;;;;;5084327;28;20482;-87
2022/06/12 05:21:45;;;;;;;7.93;6.73;;;21.10;55.80;;;;;;5068442;28;20475;-89
2022/06/12 05:24:15;;;;;;;7.10;6.40;;;21.10;55.70;;;;;;5079824;28;20489;-88
2022/06/12 05:26:46;;;;;;;7.47;6.33;;;21.10;56.10;;;;;;5065094;28;20483;-88
2022/06/12 05:29:18;;;;;;;6.13;5.53;;;21.20;56.10;;;;;;5084587;28;20428;-89
2022/06/12 05:31:48;;;;;;;6.87;6.10;;;21.20;55.60;;;;;;5084794;28;20424;-87
2022/06/12 05:34:18;;;;;;;6.80;6.20;;;21.30;55.70;;;;;;5068433;28;20520;-87
2022/06/12 05:36:46;;;;;;;6.80;6.13;;;21.40;56.00;;;;;;5051467;28;20543;-87
2022/06/12 05:39:16;;;;;;;7.27;6.40;;;21.40;55.90;;;;;;5082312;28;20487;-87
2022/06/12 05:41:45;;;;;;;6.53;5.87;;;21.40;55.80;;;;;;5076625;28;20465;-86
2022/06/12 05:44:14;;;;;;;8.73;6.97;;;21.50;56.00;;;;;;5067305;28;20465;-90
2022/06/12 05:46:43;;;;;;;8.27;6.67;;;21.50;55.70;;;;;;5053608;28;20459;-86
2022/06/12 05:49:11;;;;;;;7.57;5.67;;;21.40;55.90;;;;;;5071004;28;20436;-87
2022/06/12 05:51:41;;;;;;;6.73;6.10;;;21.50;56.10;;;;;;5066674;28;20436;-88
2022/06/12 05:54:11;;;;;;;7.93;6.33;;;21.60;55.80;;;;;;5084614;28;20557;-86
2022/06/12 05:56:41;;;;;;;5.20;4.80;;;21.60;56.10;;;;;;5060594;28;20539;-87
2022/06/12 05:59:10;;;;;;;7.27;5.00;;;21.80;56.10;;;;;;5066508;28;20528;-89
2022/06/12 06:01:41;;;;;;;6.33;4.63;;;22.10;55.90;;;;;;5064539;28;20463;-88
2022/06/12 06:08:27;;;;;;;7.00;4.50;;;22.40;54.30;;;;;;5072740;28;20432;-88
2022/06/12 06:10:55;;;;;;;5.40;5.00;;;22.60;54.00;;;;;;5079020;28;20550;-88
2022/06/12 06:13:24;;;;;;;5.43;4.87;;;22.80;53.80;;;;;;5068823;28;20436;-86
2022/06/12 06:15:53;;;;;;;5.40;4.90;;;23.00;53.00;;;;;;5077308;28;20463;-87
2022/06/12 06:18:21;;;;;;;5.90;5.30;;;23.20;53.10;;;;;;5066442;28;20452;-87
2022/06/12 06:20:50;;;;;;;4.50;4.07;;;23.30;52.80;;;;;;5080226;28;20640;-87
2022/06/12 06:23:19;;;;;;;4.83;4.43;;;23.50;52.70;;;;;;5074882;28;21543;-87
2022/06/12 06:25:47;;;;;;;5.00;4.57;;;23.70;52.00;;;;;;5077573;28;20470;-88
2022/06/12 06:28:16;;;;;;;5.43;4.60;;;23.90;52.10;;;;;;5078632;28;20446;-88
2022/06/12 06:30:45;;;;;;;5.73;5.07;;;23.90;51.30;;;;;;5074625;28;20441;-87
2022/06/12 06:33:14;;;;;;;5.50;5.10;;;24.00;51.90;;;;;;5077854;28;20448;-88
2022/06/12 06:35:43;;;;;;;5.80;4.80;;;24.20;51.60;;;;;;5059338;28;20474;-87
2022/06/12 06:38:10;;;;;;;4.50;4.20;;;24.30;50.70;;;;;;5076522;28;20965;-87
2022/06/12 06:40:38;;;;;;;5.37;4.87;;;24.10;50.80;;;;;;5057626;28;20475;-87
2022/06/12 06:43:09;;;;;;;4.63;4.30;;;24.00;51.00;;;;;;5080265;28;21061;-88
2022/06/12 06:48:27;;;;;;;7.80;5.23;;;24.00;51.50;;;;;;5079366;28;20443;-89
2022/06/12 06:50:57;;;;;;;5.27;4.77;;;24.40;51.60;;;;;;5077145;28;20451;-89
2022/06/12 06:53:25;;;;;;;5.03;4.43;;;24.50;51.00;;;;;;5051327;28;20970;-89
2022/06/12 06:55:54;;;;;;;5.00;4.60;;;24.40;51.20;;;;;;5066373;28;20461;-89
2022/06/12 06:58:24;;;;;;;5.30;4.90;;;24.30;51.50;;;;;;5051839;28;20505;-90
2022/06/12 07:00:54;;;;;;;10.40;5.03;;;24.30;50.90;;;;;;5069958;28;20440;-91
2022/06/12 07:03:22;;;;;;;6.37;5.27;;;24.20;51.80;;;;;;5085323;28;20475;-90
2022/06/12 07:05:52;;;;;;;8.17;4.70;;;24.50;51.70;;;;;;5081097;28;20490;-89
2022/06/12 07:08:21;;;;;;;5.83;5.33;;;24.80;52.00;;;;;;5066083;28;20456;-90
2022/06/12 07:10:52;;;;;;;4.47;4.17;;;25.00;51.30;;;;;;5048249;28;21016;-89
2022/06/12 07:13:21;;;;;;;6.20;5.00;;;25.10;50.60;;;;;;5082377;28;20443;-91
2022/06/12 07:15:49;;;;;;;6.13;5.60;;;25.10;51.00;;;;;;5050673;28;20479;-89
2022/06/12 07:18:18;;;;;;;5.37;4.97;;;25.10;50.90;;;;;;5084140;28;20451;-90
2022/06/12 07:20:50;;;;;;;5.03;4.63;;;25.30;50.60;;;;;;5061936;28;20998;-89
2022/06/12 07:23:21;;;;;;;5.40;5.00;;;25.40;50.20;;;;;;5060802;28;20872;-89
2022/06/12 07:25:53;;;;;;;5.93;5.17;;;25.50;50.20;;;;;;5039547;28;20470;-87
2022/06/12 07:28:22;;;;;;;5.37;4.87;;;25.80;50.40;;;;;;5075328;28;20454;-87
2022/06/12 07:30:52;;;;;;;5.37;4.77;;;26.10;49.40;;;;;;5076322;28;20459;-87
2022/06/12 07:33:21;;;;;;;5.17;4.67;;;26.10;48.90;;;;;;5046988;28;20821;-87
2022/06/12 07:35:49;;;;;;;9.00;4.50;;;26.10;49.20;;;;;;5077061;28;20470;-88
2022/06/12 07:38:22;;;;;;;4.97;4.57;;;26.20;49.20;;;;;;5073174;28;20467;-89
2022/06/12 07:40:55;;;;;;;4.60;4.20;;;26.50;49.60;;;;;;5048204;28;20478;-90
2022/06/12 07:43:23;;;;;;;10.10;4.87;;;26.70;48.60;;;;;;5083021;28;20464;-90
2022/06/12 07:45:53;;;;;;;5.10;4.60;;;26.80;47.70;;;;;;5046482;28;20463;-88
2022/06/12 07:48:24;;;;;;;5.73;5.17;;;26.90;48.60;;;;;;5064094;28;21024;-88
2022/06/12 07:50:54;;;;;;;5.73;4.80;;;26.90;47.80;;;;;;5078086;28;20474;-88
2022/06/12 07:53:24;;;;;;;5.50;4.97;;;27.00;48.30;;;;;;5070194;28;20444;-87
2022/06/12 07:55:52;;;;;;;6.60;5.53;;;27.30;48.40;;;;;;5055178;28;20539;-90
2022/06/12 07:58:23;;;;;;;6.20;4.40;;;27.60;48.40;;;;;;5042537;28;20474;-86
2022/06/12 08:00:51;;;;;;;5.40;4.90;;;27.70;47.20;;;;;;5043339;28;20516;-89
2022/06/12 08:03:19;;;;;;;5.37;4.87;;;27.60;46.70;;;;;;5045420;28;20476;-88
2022/06/12 08:05:48;;;;;;;4.80;4.40;;;27.70;46.70;;;;;;5077857;28;20785;-88
2022/06/12 08:08:16;;;;;;;4.53;4.13;;;27.70;46.60;;;;;;5062613;28;20508;-88
2022/06/12 08:10:49;;;;;;;6.97;4.43;;;27.80;46.40;;;;;;5074560;28;20448;-89
2022/06/12 08:13:17;;;;;;;4.87;4.47;;;27.80;45.60;;;;;;5075713;28;20443;-90
2022/06/12 08:15:48;;;;;;;4.90;4.50;;;27.70;46.40;;;;;;5059854;28;20599;-88
2022/06/12 08:18:17;;;;;;;4.97;4.57;;;27.80;46.70;;;;;;5069558;28;20979;-88
2022/06/12 08:20:49;;;;;;;4.40;4.10;;;28.00;46.40;;;;;;5068078;28;20568;-88
2022/06/12 08:23:27;;;;;;;4.33;3.93;;;28.30;45.70;;;;;;5075741;28;20983;-89
2022/06/12 08:25:59;;;;;;;4.20;3.80;;;28.50;44.80;;;;;;5041420;28;20764;-87
2022/06/12 08:28:29;;;;;;;3.83;3.53;;;28.80;44.20;;;;;;5063123;28;20437;-88
2022/06/12 08:30:58;;;;;;;7.47;3.00;;;28.90;43.00;;;;;;5076451;28;20521;-87
2022/06/12 08:33:27;;;;;;;3.87;3.40;;;28.90;40.70;;;;;;5077060;28;21181;-86
2022/06/12 08:35:55;;;;;;;3.13;2.90;;;29.00;41.70;;;;;;5036893;28;20503;-86
2022/06/12 08:38:24;;;;;;;3.43;3.13;;;29.20;41.60;;;;;;5078589;28;20477;-85
2022/06/12 08:41:05;;;;;;;3.03;2.83;;;29.20;39.90;;;;;;5062519;28;20466;-86
2022/06/12 08:43:39;;;;;;;3.73;3.37;;;29.30;41.10;;;;;;5065258;28;20474;-86
2022/06/12 08:46:12;;;;;;;3.50;3.27;;;29.40;40.30;;;;;;5062651;28;21011;-86
2022/06/12 08:48:48;;;;;;;3.60;3.33;;;29.50;39.60;;;;;;5076452;28;20526;-87
2022/06/12 08:51:23;;;;;;;2.77;2.57;;;29.70;39.90;;;;;;5045418;28;20520;-86
2022/06/12 08:53:57;;;;;;;4.17;2.97;;;29.80;39.40;;;;;;5078341;28;20453;-87
2022/06/12 08:56:32;;;;;;;3.67;2.93;;;29.90;38.20;;;;;;5054443;28;20512;-85
2022/06/12 08:59:09;;;;;;;2.90;2.70;;;30.10;37.50;;;;;;5075984;28;20513;-86
2022/06/12 09:01:41;;;;;;;2.73;2.50;;;29.80;37.50;;;;;;5075485;28;20453;-87
2022/06/12 09:04:11;;;;;;;3.07;2.87;;;29.70;38.40;;;;;;5062000;28;20475;-87
2022/06/12 09:06:45;;;;;;;8.10;3.20;;;29.90;38.80;;;;;;5077155;28;20531;-90
2022/06/12 09:09:23;;;;;;;3.63;3.10;;;30.10;38.50;;;;;;5061370;28;20447;-88
2022/06/12 09:12:06;;;;;;;2.93;2.60;;;30.30;38.30;;;;;;5071299;28;20845;-89
2022/06/12 09:14:50;;;;;;;3.10;2.70;;;30.50;38.70;;;;;;5079944;28;20910;-88
2022/06/12 09:17:30;;;;;;;3.13;2.83;;;30.70;37.20;;;;;;5078534;28;20444;-88
2022/06/12 09:20:07;;;;;;;3.30;3.00;;;30.70;37.50;;;;;;5057702;28;20449;-89
2022/06/12 09:22:45;;;;;;;2.57;2.20;;;30.90;36.20;;;;;;5062134;28;20465;-87
2022/06/12 09:25:19;;;;;;;3.00;1.97;;;31.10;36.60;;;;;;5064366;28;20472;-87
2022/06/12 09:27:58;;;;;;;2.47;2.30;;;31.00;34.40;;;;;;5078668;28;20447;-86
2022/06/12 09:30:37;;;;;;;2.37;2.17;;;30.90;35.70;;;;;;5081540;28;20462;-86
2022/06/12 09:33:13;;;;;;;2.97;2.30;;;31.20;36.40;;;;;;5064265;28;20471;-90
2022/06/12 09:35:55;;;;;;;2.40;2.30;;;31.30;35.90;;;;;;5069370;28;20463;-89
2022/06/12 09:38:38;;;;;;;2.73;2.53;;;31.30;36.40;;;;;;5083384;28;20439;-86
2022/06/12 09:41:12;;;;;;;2.23;2.13;;;31.50;36.10;;;;;;5080944;28;20443;-86
2022/06/12 09:43:51;;;;;;;4.53;2.60;;;31.70;35.00;;;;;;5083730;28;20540;-89
2022/06/12 09:46:34;;;;;;;3.50;2.23;;;31.70;35.30;;;;;;5082821;28;20455;-86
2022/06/12 09:49:19;;;;;;;3.13;2.50;;;31.70;34.70;;;;;;5066172;28;20542;-87
2022/06/12 09:52:08;;;;;;;3.57;2.30;;;31.70;34.70;;;;;;5081811;28;20461;-87
2022/06/12 09:54:48;;;;;;;2.40;2.20;;;31.90;34.70;;;;;;5082281;28;20650;-87
2022/06/12 09:57:23;;;;;;;2.43;1.87;;;31.80;33.20;;;;;;5055330;28;20454;-88
2022/06/12 10:00:03;;;;;;;2.10;1.90;;;31.80;32.70;;;;;;5080330;28;21169;-87
2022/06/12 10:02:52;;;;;;;2.07;1.97;;;31.70;33.40;;;;;;5085028;28;20463;-90
2022/06/12 10:05:28;;;;;;;2.23;2.03;;;31.90;33.20;;;;;;5080544;28;21636;-88
2022/06/12 10:08:01;;;;;;;2.37;2.17;;;31.90;32.20;;;;;;5086872;28;21035;-92
2022/06/12 10:10:34;;;;;;;2.23;2.00;;;32.10;32.70;;;;;;5062300;28;20493;-88
2022/06/12 10:13:08;;;;;;;2.57;2.37;;;32.40;32.90;;;;;;5064708;28;20474;-87
2022/06/12 10:15:42;;;;;;;2.10;1.90;;;32.90;33.50;;;;;;5068167;28;20463;-88
2022/06/12 10:18:15;;;;;;;3.00;2.00;;;33.10;31.20;;;;;;5086389;28;20436;-87
2022/06/12 10:20:48;;;;;;;2.10;1.90;;;33.00;31.80;;;;;;5067508;28;20467;-87
2022/06/12 10:23:16;;;;;;;3.30;2.00;;;33.10;31.40;;;;;;5061399;28;20475;-88
2022/06/12 10:25:53;;;;;;;2.70;2.03;;;32.90;31.90;;;;;;5067067;28;20556;-88
2022/06/12 10:28:26;;;;;;;3.20;1.97;;;32.70;32.80;;;;;;5063837;28;21139;-87
2022/06/12 10:31:04;;;;;;;2.27;2.17;;;33.00;32.90;;;;;;5083027;28;20558;-88
2022/06/12 10:33:47;;;;;;;2.37;2.17;;;33.00;30.90;;;;;;5064221;28;20852;-87
2022/06/12 10:36:22;;;;;;;3.60;2.60;;;33.00;32.50;;;;;;5052219;28;21076;-88
2022/06/12 10:38:51;;;;;;;2.73;2.53;;;33.00;31.80;;;;;;5079000;28;20455;-88
2022/06/12 10:41:26;;;;;;;2.90;2.70;;;33.00;31.90;;;;;;5079980;28;20451;-87
2022/06/12 10:43:57;;;;;;;5.90;3.37;;;33.00;32.00;;;;;;5073655;28;20548;-88
2022/06/12 10:46:30;;;;;;;14.73;8.43;;;33.10;32.50;;;;;;5069887;28;20482;-90
2022/06/12 10:49:02;;;;;;;13.50;9.80;;;32.90;32.00;;;;;;5086726;28;20493;-91
2022/06/12 10:51:36;;;;;;;5.97;3.17;;;32.90;31.90;;;;;;5088789;28;20461;-88
2022/06/12 10:54:14;;;;;;;5.63;4.43;;;32.90;31.80;;;;;;5084846;28;20941;-89
2022/06/12 10:56:47;;;;;;;2.47;2.37;;;32.90;31.80;;;;;;5066634;28;20427;-89
2022/06/12 10:59:38;;;;;;;4.33;3.20;;;33.20;32.20;;;;;;5060786;28;20819;-86
2022/06/12 11:02:40;;;;;;;7.93;5.03;;;33.20;32.60;;;;;;5061553;28;20447;-87
2022/06/12 11:05:29;;;;;;;2.87;2.53;;;33.50;31.40;;;;;;5079232;28;20536;-87
2022/06/12 11:08:09;;;;;;;3.43;2.80;;;33.60;31.50;;;;;;5042228;28;20457;-87
2022/06/12 11:10:44;;;;;;;2.63;2.40;;;33.30;31.00;;;;;;5081819;28;20443;-87
2022/06/12 11:13:36;;;;;;;3.47;3.17;;;33.60;31.10;;;;;;5066656;28;20442;-87
2022/06/12 11:16:17;;;;;;;8.00;3.80;;;33.70;31.50;;;;;;5080308;28;20460;-88
2022/06/12 11:18:59;;;;;;;3.60;3.20;;;34.10;31.40;;;;;;5049307;28;20445;-85
2022/06/12 11:21:39;;;;;;;3.33;3.13;;;33.80;30.20;;;;;;5077940;28;20559;-87
2022/06/12 11:24:17;;;;;;;3.23;3.03;;;33.70;31.00;;;;;;5079225;28;21447;-88
2022/06/12 11:27:03;;;;;;;17.17;13.17;;;34.00;31.60;;;;;;5079748;28;20436;-87
2022/06/12 11:29:54;;;;;;;6.40;5.20;;;34.10;30.80;;;;;;5060766;28;20531;-88
2022/06/12 11:32:33;;;;;;;5.27;4.77;;;33.90;31.10;;;;;;5074831;28;20441;-90
2022/06/12 11:35:14;;;;;;;3.10;2.80;;;33.70;31.00;;;;;;5065776;28;20508;-88
2022/06/12 11:37:55;;;;;;;2.50;2.30;;;33.70;31.40;;;;;;5054890;28;20543;-88
2022/06/12 11:40:33;;;;;;;3.10;2.90;;;34.10;31.10;;;;;;5066232;28;20444;-89
2022/06/12 11:43:12;;;;;;;2.43;2.30;;;34.30;30.50;;;;;;5068157;28;20449;-89
2022/06/12 11:45:54;;;;;;;3.60;2.97;;;34.10;30.50;;;;;;5081653;28;20463;-87
2022/06/12 11:48:37;;;;;;;3.50;3.20;;;34.10;30.90;;;;;;5065862;28;20543;-89
2022/06/12 11:51:14;;;;;;;3.40;2.60;;;34.00;30.00;;;;;;5078449;28;20531;-88
2022/06/12 11:53:59;;;;;;;5.40;2.87;;;33.90;30.10;;;;;;5064711;28;20435;-88
2022/06/12 11:56:41;;;;;;;2.70;2.50;;;33.70;31.00;;;;;;5084859;28;20455;-87
2022/06/12 11:59:23;;;;;;;3.63;2.97;;;34.00;31.30;;;;;;5082552;28;20446;-87
2022/06/12 12:02:01;;;;;;;4.33;2.40;;;34.00;30.70;;;;;;5081495;28;20440;-88
2022/06/12 12:04:55;;;;;;;2.83;2.63;;;33.40;31.40;;;;;;5065704;28;20544;-88
2022/06/12 12:07:39;;;;;;;2.70;2.50;;;33.60;32.30;;;;;;5049220;28;20461;-89
2022/06/12 12:10:20;;;;;;;5.00;2.30;;;33.40;29.90;;;;;;5062941;28;20453;-90
2022/06/12 12:12:52;;;;;;;2.70;2.50;;;33.70;31.40;;;;;;5079418;28;20476;-88
2022/06/12 12:15:30;;;;;;;2.70;2.50;;;34.00;30.90;;;;;;5059422;28;20459;-87
2022/06/12 12:18:03;;;;;;;3.93;2.80;;;34.10;30.50;;;;;;5061955;28;21054;-88
2022/06/12 12:20:39;;;;;;;2.70;2.50;;;34.10;30.90;;;;;;5083482;28;20470;-87
2022/06/12 12:23:14;;;;;;;2.67;1.97;;;33.60;29.70;;;;;;5064265;28;20443;-90
2022/06/12 12:25:47;;;;;;;2.63;2.43;;;33.40;30.00;;;;;;5067946;28;20459;-89
2022/06/12 12:28:22;;;;;;;2.10;2.00;;;33.80;30.20;;;;;;5078789;28;20531;-86
2022/06/12 12:30:54;;;;;;;2.93;2.73;;;34.10;28.90;;;;;;5060999;28;20452;-91
2022/06/12 12:33:23;;;;;;;2.63;2.07;;;34.10;29.40;;;;;;5067282;28;20441;-88
2022/06/12 12:41:44;;;;;;;3.03;2.77;;;34.00;29.90;;;;;;5057685;28;20440;-89
2022/06/12 12:44:16;;;;;;;2.40;2.20;;;34.10;30.30;;;;;;5061803;28;20601;-89
2022/06/12 12:46:49;;;;;;;2.60;2.40;;;34.00;30.30;;;;;;5059510;28;20526;-85
2022/06/12 12:49:24;;;;;;;4.77;2.70;;;33.80;29.80;;;;;;5076446;28;20847;-89
2022/06/12 12:52:03;;;;;;;2.87;2.67;;;33.70;32.20;;;;;;5051833;28;20533;-89
2022/06/12 12:54:43;;;;;;;2.53;2.33;;;33.50;30.40;;;;;;5067104;28;20469;-91
2022/06/12 12:57:15;;;;;;;3.00;2.80;;;33.50;31.80;;;;;;5078776;28;21095;-90
2022/06/12 12:59:49;;;;;;;2.37;2.17;;;33.70;31.70;;;;;;5065374;28;20478;-89
2022/06/12 13:02:23;;;;;;;2.60;2.40;;;34.00;30.80;;;;;;5086913;28;20542;-88
2022/06/12 13:04:53;;;;;;;2.43;2.23;;;34.10;30.00;;;;;;5086118;28;20467;-89
2022/06/12 13:07:41;;;;;;;3.07;2.53;;;34.30;30.60;;;;;;5060832;28;20448;-90
2022/06/12 13:10:35;;;;;;;3.60;2.67;;;34.00;30.30;;;;;;5051968;28;20455;-87
2022/06/12 13:13:23;;;;;;;3.40;2.73;;;33.80;29.80;;;;;;5083245;28;20435;-86
2022/06/12 13:15:55;;;;;;;11.07;2.37;;;33.70;30.50;;;;;;5068794;28;20451;-87
2022/06/12 13:18:41;;;;;;;2.67;2.50;;;33.90;30.10;;;;;;5085500;28;20446;-90
2022/06/12 13:21:20;;;;;;;2.53;2.33;;;33.80;29.80;;;;;;5072041;28;20442;-87
2022/06/12 13:24:03;;;;;;;1.90;1.80;;;33.90;29.00;;;;;;5080962;28;20506;-89
2022/06/12 13:26:37;;;;;;;4.70;2.17;;;34.10;28.90;;;;;;5052970;28;20439;-90
2022/06/12 13:29:12;;;;;;;2.10;2.00;;;34.00;29.60;;;;;;5067260;28;20443;-89
2022/06/12 13:31:41;;;;;;;4.63;2.47;;;34.10;29.80;;;;;;5057174;28;20440;-89
2022/06/12 13:34:19;;;;;;;3.20;2.53;;;34.00;29.70;;;;;;5087842;28;20520;-88
2022/06/12 13:36:47;;;;;;;2.17;1.87;;;33.90;29.30;;;;;;5065001;28;20436;-87
2022/06/12 13:39:36;;;;;;;3.80;2.07;;;34.10;29.10;;;;;;5083577;28;21167;-88
2022/06/12 13:42:11;;;;;;;3.13;2.27;;;34.20;29.50;;;;;;5094143;28;20436;-89